createdAt,value
2023-04-08T00:00:31.238Z,0.00
2023-04-08T00:05:32.279Z,0.00
2023-04-08T00:10:21.268Z,0.00
2023-04-08T00:15:27.337Z,0.00
2023-04-08T00:20:17.254Z,0.00
2023-04-08T00:25:24.818Z,0.00
2023-04-08T00:30:28.719Z,0.00
2023-04-08T00:35:17.567Z,0.00
2023-04-08T00:40:24.347Z,0.00
2023-04-08T00:45:29.306Z,0.00
2023-04-08T00:50:18.246Z,0.00
2023-04-08T00:55:24.416Z,0.00
2023-04-08T01:00:30.531Z,0.00
2023-04-08T01:05:19.691Z,0.00
2023-04-08T01:10:25.794Z,0.00
2023-04-08T01:15:31.874Z,0.00
2023-04-08T01:20:22.103Z,0.00
2023-04-08T01:25:26.994Z,0.00
2023-04-08T01:30:33.808Z,0.00
2023-04-08T01:35:22.122Z,0.00
2023-04-08T01:40:27.681Z,0.00
2023-04-08T01:45:16.684Z,0.00
2023-04-08T01:50:22.827Z,0.00
2023-04-08T01:55:28.866Z,0.00
2023-04-08T02:00:24.430Z,0.00
2023-04-08T02:05:23.406Z,0.00
2023-04-08T02:10:29.449Z,0.00
2023-04-08T02:15:18.773Z,0.00
2023-04-08T02:20:25.513Z,0.00
2023-04-08T02:25:30.677Z,0.00
2023-04-08T02:30:19.704Z,0.00
2023-04-08T02:35:25.784Z,0.00
2023-04-08T02:40:31.169Z,0.00
2023-04-08T02:45:20.203Z,0.00
2023-04-08T02:50:26.178Z,0.00
2023-04-08T02:55:32.258Z,0.00
2023-04-08T03:00:22.600Z,0.00
2023-04-08T03:05:27.639Z,0.00
2023-04-08T03:10:16.816Z,0.00
2023-04-08T03:15:22.819Z,0.00
2023-04-08T03:20:28.894Z,0.00
2023-04-08T03:25:18.252Z,0.00
2023-04-08T03:30:24.082Z,0.00
2023-04-08T03:35:30.582Z,0.00
2023-04-08T03:40:19.481Z,0.00
2023-04-08T03:45:24.520Z,0.00
2023-04-08T03:50:32.327Z,0.00
2023-04-08T03:55:19.617Z,0.00
2023-04-08T04:00:31.557Z,0.00
2023-04-08T04:05:31.821Z,0.00
2023-04-08T04:10:21.390Z,0.00
2023-04-08T04:15:27.088Z,0.00
2023-04-08T04:20:33.143Z,0.00
2023-04-08T04:25:22.127Z,0.00
2023-04-08T04:30:28.196Z,0.00
2023-04-08T04:35:17.246Z,0.00
2023-04-08T04:40:23.892Z,0.06
2023-04-08T04:45:28.456Z,0.36
2023-04-08T04:50:17.447Z,1.37
2023-04-08T04:55:24.563Z,2.44
2023-04-08T05:00:29.681Z,3.96
2023-04-08T05:05:19.817Z,5.71
2023-04-08T05:10:24.962Z,10.13
2023-04-08T05:15:31.038Z,17.63
2023-04-08T05:20:21.366Z,30.11
2023-04-08T05:25:26.166Z,39.65
2023-04-08T05:30:32.294Z,54.05
2023-04-08T05:35:21.290Z,50.29
2023-04-08T05:40:27.501Z,36.17
2023-04-08T05:45:33.188Z,35.78
2023-04-08T05:50:22.050Z,24.72
2023-04-08T05:55:28.239Z,29.62
2023-04-08T06:00:24.367Z,29.45
2023-04-08T06:05:22.637Z,26.39
2023-04-08T06:10:28.906Z,28.28
2023-04-08T06:15:17.645Z,20.50
2023-04-08T06:20:25.045Z,19.25
2023-04-08T06:25:29.849Z,18.01
2023-04-08T06:30:18.879Z,27.06
2023-04-08T06:35:24.988Z,36.01
2023-04-08T06:40:30.531Z,40.70
2023-04-08T06:45:19.270Z,47.33
2023-04-08T06:50:25.432Z,42.75
2023-04-08T06:55:31.420Z,38.91
2023-04-08T07:00:20.486Z,43.37
2023-04-08T07:05:26.813Z,48.49
2023-04-08T07:10:32.850Z,47.90
2023-04-08T07:15:22.001Z,49.83
2023-04-08T07:20:28.086Z,44.83
2023-04-08T07:25:17.038Z,56.10
2023-04-08T07:30:23.114Z,64.40
2023-04-08T07:35:29.174Z,52.76
2023-04-08T07:40:17.509Z,51.11
2023-04-08T07:45:23.520Z,59.37
2023-04-08T07:50:29.539Z,69.38
2023-04-08T07:55:18.983Z,60.85
2023-04-08T08:00:28.196Z,71.36
2023-04-08T08:05:30.799Z,86.93
2023-04-08T08:10:19.804Z,82.06
2023-04-08T08:15:27.270Z,88.50
2023-04-08T08:20:31.956Z,113.20
2023-04-08T08:25:20.881Z,120.42
2023-04-08T08:30:27.087Z,183.71
2023-04-08T08:35:33.191Z,209.59
2023-04-08T08:40:22.984Z,213.04
2023-04-08T08:45:27.694Z,246.64
2023-04-08T08:50:16.606Z,259.17
2023-04-08T08:55:50.814Z,256.14
2023-04-08T09:00:28.866Z,273.03
2023-04-08T09:05:18.218Z,196.67
2023-04-08T09:10:24.304Z,119.61
2023-04-08T09:15:30.296Z,114.70
2023-04-08T09:20:20.629Z,124.89
2023-04-08T09:25:25.364Z,158.32
2023-04-08T09:30:31.428Z,144.77
2023-04-08T09:35:20.418Z,175.93
2023-04-08T09:40:27.586Z,238.88
2023-04-08T09:45:32.520Z,208.96
2023-04-08T09:50:21.065Z,221.52
2023-04-08T09:55:28.910Z,205.20
2023-04-08T10:00:39.029Z,239.90
2023-04-08T10:05:22.852Z,259.10
2023-04-08T10:10:28.586Z,194.50
2023-04-08T10:15:16.840Z,191.87
2023-04-08T10:20:29.977Z,170.21
2023-04-08T10:25:28.987Z,165.81
2023-04-08T10:30:18.118Z,121.02
2023-04-08T10:35:24.013Z,138.02
2023-04-08T10:40:31.438Z,122.90
2023-04-08T10:45:18.356Z,134.59
2023-04-08T10:50:24.820Z,127.65
2023-04-08T10:55:30.949Z,112.71
2023-04-08T11:00:21.264Z,130.67
2023-04-08T11:05:26.182Z,143.17
2023-04-08T11:10:32.343Z,137.94
2023-04-08T11:15:21.204Z,134.61
2023-04-08T11:20:28.987Z,141.91
2023-04-08T11:25:34.293Z,188.40
2023-04-08T11:30:22.398Z,207.59
2023-04-08T11:35:28.530Z,245.90
2023-04-08T11:40:17.415Z,315.50
2023-04-08T11:45:23.197Z,353.05
2023-04-08T11:50:28.823Z,302.39
2023-04-08T11:55:17.852Z,222.90
2023-04-08T12:00:25.873Z,218.19
2023-04-08T12:05:29.380Z,204.94
2023-04-08T12:10:18.958Z,265.55
2023-04-08T12:15:24.411Z,309.88
2023-04-08T12:20:30.444Z,394.34
2023-04-08T12:25:19.403Z,489.83
2023-04-08T12:30:25.533Z,206.95
2023-04-08T12:35:31.495Z,209.15
2023-04-08T12:40:22.047Z,190.47
2023-04-08T12:45:27.068Z,183.40
2023-04-08T12:50:33.266Z,183.73
2023-04-08T12:55:22.244Z,162.38
2023-04-08T13:00:29.437Z,114.35
2023-04-08T13:05:18.232Z,87.88
2023-04-08T13:10:22.598Z,87.19
2023-04-08T13:15:28.631Z,93.72
2023-04-08T13:20:18.036Z,108.49
2023-04-08T13:25:23.763Z,111.79
2023-04-08T13:30:29.793Z,140.61
2023-04-08T13:35:18.894Z,185.84
2023-04-08T13:40:25.777Z,205.74
2023-04-08T13:45:30.944Z,200.22
2023-04-08T13:50:20.024Z,170.28
2023-04-08T13:55:26.269Z,135.44
2023-04-08T14:00:34.330Z,88.84
2023-04-08T14:05:20.878Z,54.85
2023-04-08T14:10:27.065Z,41.50
2023-04-08T14:15:32.834Z,37.06
2023-04-08T14:20:22.198Z,50.54
2023-04-08T14:25:27.979Z,48.43
2023-04-08T14:30:17.288Z,57.80
2023-04-08T14:35:23.435Z,88.76
2023-04-08T14:40:31.000Z,104.99
2023-04-08T14:45:18.243Z,95.51
2023-04-08T14:50:24.702Z,98.34
2023-04-08T14:55:30.335Z,126.70
2023-04-08T15:00:20.481Z,115.78
2023-04-08T15:05:26.405Z,87.75
2023-04-08T15:10:32.179Z,51.88
2023-04-08T15:15:19.980Z,54.13
2023-04-08T15:20:26.246Z,70.04
2023-04-08T15:25:31.769Z,82.70
2023-04-08T15:30:20.825Z,71.08
2023-04-08T15:35:26.917Z,59.50
2023-04-08T15:40:32.657Z,59.64
2023-04-08T15:45:21.217Z,61.94
2023-04-08T15:50:27.465Z,59.91
2023-04-08T15:55:16.328Z,46.22
2023-04-08T16:00:25.872Z,50.39
2023-04-08T16:05:30.339Z,43.77
2023-04-08T16:10:17.898Z,31.66
2023-04-08T16:15:23.974Z,28.04
2023-04-08T16:20:29.937Z,32.55
2023-04-08T16:25:19.146Z,40.52
2023-04-08T16:30:25.129Z,45.96
2023-04-08T16:35:31.219Z,48.42
2023-04-08T16:40:20.776Z,46.55
2023-04-08T16:45:26.106Z,47.09
2023-04-08T16:50:31.849Z,46.85
2023-04-08T16:55:20.900Z,51.08
2023-04-08T17:00:27.553Z,48.40
2023-04-08T17:05:33.145Z,40.21
2023-04-08T17:10:22.217Z,32.01
2023-04-08T17:15:28.282Z,24.25
2023-04-08T17:20:17.497Z,18.88
2023-04-08T17:25:23.376Z,14.80
2023-04-08T17:30:29.900Z,11.25
2023-04-08T17:35:18.489Z,7.79
2023-04-08T17:40:25.028Z,5.03
2023-04-08T17:45:30.064Z,2.56
2023-04-08T17:50:19.043Z,1.17
2023-04-08T17:55:25.225Z,0.36
2023-04-08T18:00:34.095Z,0.00
2023-04-08T18:05:19.595Z,0.00
2023-04-08T18:10:25.663Z,0.00
2023-04-08T18:15:31.727Z,0.00
2023-04-08T18:20:22.158Z,0.00
2023-04-08T18:25:26.859Z,0.00
2023-04-08T18:30:32.909Z,0.00
2023-04-08T18:35:21.871Z,0.00
2023-04-08T18:40:27.645Z,0.00
2023-04-08T18:45:16.647Z,0.00
2023-04-08T18:50:22.933Z,0.00
2023-04-08T18:55:28.716Z,0.00
2023-04-08T19:00:18.027Z,0.00
2023-04-08T19:05:23.174Z,0.00
2023-04-08T19:10:29.225Z,0.00
2023-04-08T19:15:18.293Z,0.00
2023-04-08T19:20:24.844Z,0.00
2023-04-08T19:25:30.473Z,0.00
2023-04-08T19:30:19.375Z,0.00
2023-04-08T19:35:25.465Z,0.00
2023-04-08T19:40:31.880Z,0.00
2023-04-08T19:45:20.824Z,0.00
2023-04-08T19:50:27.182Z,0.00
2023-04-08T19:55:33.013Z,0.00
2023-04-08T20:00:25.142Z,0.00
2023-04-08T20:05:27.345Z,0.00
2023-04-08T20:10:16.508Z,0.00
2023-04-08T20:15:25.283Z,0.00
2023-04-08T20:20:29.993Z,0.00
2023-04-08T20:25:17.671Z,0.00
2023-04-08T20:30:23.610Z,0.00
2023-04-08T20:35:29.719Z,0.00
2023-04-08T20:40:18.518Z,0.00
2023-04-08T20:45:24.474Z,0.00
2023-04-08T20:50:30.497Z,0.00
2023-04-08T20:55:19.644Z,0.00
2023-04-08T21:00:25.762Z,0.00
2023-04-08T21:05:31.833Z,0.00
2023-04-08T21:10:20.793Z,0.00
2023-04-08T21:15:26.943Z,0.00
2023-04-08T21:20:32.899Z,0.00
2023-04-08T21:25:22.033Z,0.00
2023-04-08T21:30:28.537Z,0.00
2023-04-08T21:35:17.130Z,0.00
2023-04-08T21:40:23.387Z,0.00
2023-04-08T21:45:28.565Z,0.00
2023-04-08T21:50:17.591Z,0.00
2023-04-08T21:55:23.948Z,0.00
2023-04-08T22:00:34.478Z,0.00
2023-04-08T22:05:19.365Z,0.00
2023-04-08T22:10:25.260Z,0.00
2023-04-08T22:15:31.362Z,0.00
2023-04-08T22:20:20.536Z,0.00
2023-04-08T22:25:26.432Z,0.00
2023-04-08T22:30:32.406Z,0.00
2023-04-08T22:35:21.532Z,0.00
2023-04-08T22:40:26.855Z,0.00
2023-04-08T22:45:32.891Z,0.00
2023-04-08T22:50:21.845Z,0.00
2023-04-08T22:55:28.301Z,0.00
2023-04-08T23:00:17.190Z,0.00
2023-04-08T23:05:22.399Z,0.00
2023-04-08T23:10:28.446Z,0.00
2023-04-08T23:15:17.508Z,0.00
2023-04-08T23:20:24.996Z,0.00
2023-04-08T23:25:29.586Z,0.00
2023-04-08T23:30:18.536Z,0.00
2023-04-08T23:35:24.602Z,0.00
2023-04-08T23:40:31.064Z,0.00
2023-04-08T23:45:20.102Z,0.00
2023-04-08T23:50:26.097Z,0.00
2023-04-08T23:55:32.238Z,0.00
